Time;durP1;ratioP1;P1;durP2;ratioP2;P2;SDS_P1;SDS_P2;PMS_P1;PMS_P2;Temp;Humidity;BMP_temperature;BMP_pressure;BME280_temperature;BME280_humidity;BME280_pressure;Samples;Min_cycle;Max_cycle;Signal;HPM_P1;HPM_P2
2023/09/16 00:00:33;;;;;;;9.95;6.68;;;15.00;99.90;;;;;;5055291;28;20033;-47
2023/09/16 00:03:06;;;;;;;7.40;6.68;;;15.00;99.90;;;;;;5062970;28;20403;-50
2023/09/16 00:05:32;;;;;;;7.40;6.70;;;15.00;99.90;;;;;;5067513;28;20044;-47
2023/09/16 00:07:57;;;;;;;9.27;7.40;;;15.00;99.90;;;;;;5064490;28;20144;-48
2023/09/16 00:10:23;;;;;;;7.68;6.97;;;14.90;99.90;;;;;;5061172;28;20044;-49
2023/09/16 00:12:49;;;;;;;8.63;7.70;;;14.90;99.90;;;;;;5067004;28;20095;-48
2023/09/16 00:15:15;;;;;;;11.68;8.00;;;14.90;99.90;;;;;;5068657;28;20081;-47
2023/09/16 00:17:40;;;;;;;8.25;7.28;;;15.00;99.90;;;;;;5063347;28;20028;-48
2023/09/16 00:20:15;;;;;;;9.35;7.72;;;15.00;99.90;;;;;;5066449;28;20045;-52
2023/09/16 00:22:44;;;;;;;8.48;7.72;;;15.00;99.90;;;;;;5065293;28;20076;-52
2023/09/16 00:25:10;;;;;;;9.90;7.10;;;15.00;99.90;;;;;;5069585;28;20040;-51
2023/09/16 00:27:39;;;;;;;7.07;6.38;;;15.00;99.90;;;;;;5064264;28;20112;-49
2023/09/16 00:30:05;;;;;;;11.65;6.78;;;15.00;99.90;;;;;;5068900;28;20549;-52
2023/09/16 00:32:32;;;;;;;5.72;5.22;;;15.00;99.90;;;;;;5068403;28;20037;-53
2023/09/16 00:34:58;;;;;;;9.02;6.20;;;14.90;99.90;;;;;;5034688;28;20046;-52
2023/09/16 00:37:24;;;;;;;7.70;6.38;;;14.80;99.90;;;;;;5068568;28;20076;-49
2023/09/16 00:39:50;;;;;;;8.13;5.40;;;14.70;99.90;;;;;;5069112;28;20133;-48
2023/09/16 00:42:16;;;;;;;9.57;5.78;;;14.60;99.90;;;;;;5069074;28;20548;-49
2023/09/16 00:44:42;;;;;;;7.35;6.60;;;14.60;99.90;;;;;;5068759;28;20151;-53
2023/09/16 00:47:08;;;;;;;8.40;6.78;;;14.60;99.90;;;;;;5067431;28;20119;-48
2023/09/16 00:49:34;;;;;;;9.55;6.88;;;14.60;99.90;;;;;;5068762;28;20119;-48
2023/09/16 00:52:00;;;;;;;9.57;7.30;;;14.60;99.90;;;;;;5062552;28;20037;-53
2023/09/16 00:54:26;;;;;;;11.88;6.78;;;14.60;99.90;;;;;;5061973;28;20471;-53
2023/09/16 00:56:54;;;;;;;9.52;7.53;;;14.50;99.90;;;;;;5058957;28;20039;-53
2023/09/16 00:59:22;;;;;;;7.50;6.82;;;14.50;99.90;;;;;;5061151;28;20025;-51
2023/09/16 01:01:51;;;;;;;8.60;7.80;;;14.50;99.90;;;;;;5065371;28;20044;-50
2023/09/16 01:04:17;;;;;;;9.43;7.68;;;14.50;99.90;;;;;;5067904;28;20514;-53
2023/09/16 01:06:43;;;;;;;7.43;6.72;;;14.50;99.90;;;;;;5066887;28;20044;-53
2023/09/16 01:09:11;;;;;;;7.72;6.88;;;14.40;99.90;;;;;;5068554;28;20517;-53
2023/09/16 01:11:38;;;;;;;8.52;7.03;;;14.40;99.90;;;;;;5068904;28;20044;-53
2023/09/16 01:14:05;;;;;;;7.55;6.85;;;14.40;99.90;;;;;;5068956;28;20516;-50
2023/09/16 01:16:45;;;;;;;7.78;6.60;;;14.30;99.90;;;;;;5069296;28;20107;-52
2023/09/16 01:19:26;;;;;;;8.57;7.88;;;14.30;99.90;;;;;;5068421;28;20040;-53
2023/09/16 01:21:52;;;;;;;11.82;8.07;;;14.30;99.90;;;;;;5071951;28;20041;-54
2023/09/16 01:24:18;;;;;;;;;;;14.30;99.90;;;;;;5073404;28;20041;-53
2023/09/16 01:26:45;;;;;;;11.90;9.13;;;14.40;99.90;;;;;;5072765;28;19916;-53
2023/09/16 01:29:12;;;;;;;9.77;8.93;;;14.40;99.90;;;;;;5067009;28;20036;-53
2023/09/16 01:31:38;;;;;;;13.85;9.35;;;14.40;99.90;;;;;;5062608;28;20518;-53
2023/09/16 01:34:08;;;;;;;;;;;14.40;99.90;;;;;;5058686;28;20168;-53
2023/09/16 01:36:35;;;;;;;11.23;10.02;;;14.30;99.90;;;;;;5069694;28;19943;-53
2023/09/16 01:39:03;;;;;;;;;;;14.30;99.90;;;;;;5068781;28;20039;-53
2023/09/16 01:41:29;;;;;;;11.10;9.95;;;14.30;99.90;;;;;;5068983;28;19916;-53
2023/09/16 01:43:55;;;;;;;13.13;10.48;;;14.20;99.90;;;;;;5065491;28;20085;-53
2023/09/16 01:46:21;;;;;;;10.98;9.88;;;14.20;99.90;;;;;;5067573;28;20067;-53
2023/09/16 01:48:47;;;;;;;9.75;8.85;;;14.20;99.90;;;;;;5069208;28;20029;-54
2023/09/16 01:51:13;;;;;;;13.75;10.32;;;14.10;99.90;;;;;;5072080;28;20048;-53
2023/09/16 01:53:39;;;;;;;14.02;11.40;;;14.10;99.90;;;;;;5060809;28;20041;-53
2023/09/16 01:56:05;;;;;;;16.05;10.73;;;14.00;99.90;;;;;;5056356;28;20052;-53
2023/09/16 01:58:31;;;;;;;10.68;9.63;;;13.90;99.90;;;;;;5057824;28;20035;-53
2023/09/16 02:00:57;;;;;;;10.40;9.40;;;13.90;99.90;;;;;;5064436;28;20040;-53
2023/09/16 02:03:22;;;;;;;12.63;10.80;;;13.80;99.90;;;;;;5072250;28;20090;-53
2023/09/16 02:05:48;;;;;;;12.48;9.95;;;13.80;99.90;;;;;;5068412;28;20033;-53
2023/09/16 02:08:14;;;;;;;13.13;10.23;;;13.90;99.90;;;;;;5069581;28;20068;-54
2023/09/16 02:10:39;;;;;;;13.85;11.40;;;14.00;99.90;;;;;;5069714;28;20074;-53
2023/09/16 02:13:05;;;;;;;11.48;10.27;;;14.00;99.90;;;;;;5068845;28;20037;-53
2023/09/16 02:15:30;;;;;;;10.40;9.40;;;14.00;99.90;;;;;;5069585;28;20277;-54
2023/09/16 02:17:56;;;;;;;7.97;7.28;;;14.00;99.90;;;;;;5070680;28;20491;-53
2023/09/16 02:20:22;;;;;;;10.50;8.90;;;14.00;99.90;;;;;;5070329;28;20123;-53
2023/09/16 02:22:48;;;;;;;8.95;8.05;;;13.90;99.90;;;;;;5070769;28;20128;-51
2023/09/16 02:25:15;;;;;;;9.20;8.30;;;13.90;99.90;;;;;;5071975;28;20040;-54
2023/09/16 02:27:41;;;;;;;8.90;7.70;;;13.90;99.90;;;;;;5071215;28;20044;-53
2023/09/16 02:30:07;;;;;;;10.38;9.38;;;13.90;99.90;;;;;;5071729;28;20359;-53
2023/09/16 02:32:32;;;;;;;11.00;9.18;;;13.80;99.90;;;;;;5076974;28;20078;-49
2023/09/16 02:34:58;;;;;;;13.88;9.52;;;13.80;99.90;;;;;;5076438;28;20111;-49
2023/09/16 02:37:23;;;;;;;13.98;9.88;;;13.80;99.90;;;;;;5071455;28;20423;-52
2023/09/16 02:39:49;;;;;;;13.15;10.38;;;13.80;99.90;;;;;;5071017;28;20048;-49
2023/09/16 02:42:15;;;;;;;11.27;10.13;;;13.80;99.90;;;;;;5069694;28;20041;-52
2023/09/16 02:44:40;;;;;;;10.95;9.93;;;13.90;99.90;;;;;;5071216;28;20055;-53
2023/09/16 02:47:06;;;;;;;11.38;10.35;;;13.90;99.90;;;;;;5070226;28;20348;-52
2023/09/16 02:49:33;;;;;;;14.57;11.90;;;13.90;99.90;;;;;;5071014;28;20549;-54
2023/09/16 02:51:58;;;;;;;11.68;9.85;;;14.00;99.90;;;;;;5068375;28;20490;-53
2023/09/16 02:54:24;;;;;;;12.35;10.90;;;14.00;99.90;;;;;;5067428;28;20040;-53
2023/09/16 02:56:50;;;;;;;12.10;10.90;;;14.00;99.90;;;;;;5069574;28;20637;-53
2023/09/16 02:59:15;;;;;;;11.73;10.50;;;14.00;99.90;;;;;;5063774;28;20118;-53
2023/09/16 03:01:42;;;;;;;11.15;9.93;;;13.90;99.90;;;;;;5063685;28;20415;-53
2023/09/16 03:04:08;;;;;;;10.82;9.80;;;13.90;99.90;;;;;;5061781;28;20036;-53
2023/09/16 03:06:33;;;;;;;10.15;9.20;;;13.90;99.90;;;;;;5070386;28;20506;-53
2023/09/16 03:08:59;;;;;;;8.77;7.90;;;13.90;99.90;;;;;;5070004;28;20123;-53
2023/09/16 03:11:24;;;;;;;17.25;7.47;;;13.80;99.90;;;;;;5070634;28;20117;-50
2023/09/16 03:13:50;;;;;;;8.43;7.72;;;13.80;99.90;;;;;;5070718;28;20045;-53
2023/09/16 03:16:21;;;;;;;39.35;10.57;;;13.80;99.90;;;;;;5070321;28;20047;-53
2023/09/16 03:18:51;;;;;;;7.20;6.70;;;13.70;99.90;;;;;;5070360;28;20041;-53
2023/09/16 03:21:18;;;;;;;8.00;7.38;;;13.60;99.90;;;;;;5070549;28;20418;-53
2023/09/16 03:23:44;;;;;;;7.63;6.97;;;13.50;99.90;;;;;;5069173;28;20052;-53
2023/09/16 03:26:10;;;;;;;8.13;7.43;;;13.50;99.90;;;;;;5070452;28;20080;-52
2023/09/16 03:28:41;;;;;;;7.97;7.28;;;13.50;99.90;;;;;;5069022;28;20052;-50
2023/09/16 03:31:06;;;;;;;8.95;7.97;;;13.50;99.90;;;;;;5070408;28;20608;-52
2023/09/16 03:33:32;;;;;;;7.50;6.80;;;13.40;99.90;;;;;;5070522;28;20037;-54
2023/09/16 03:35:58;;;;;;;9.40;8.43;;;13.40;99.90;;;;;;5070268;28;20150;-53
2023/09/16 03:38:29;;;;;;;8.38;7.68;;;13.40;99.90;;;;;;5070198;28;20041;-50
2023/09/16 03:40:55;;;;;;;8.48;7.78;;;13.40;99.90;;;;;;5069758;28;20104;-51
2023/09/16 03:43:21;;;;;;;5.30;5.00;;;13.40;99.90;;;;;;5069740;28;20126;-51
2023/09/16 03:45:46;;;;;;;7.03;6.43;;;13.40;99.90;;;;;;5070047;28;20534;-53
2023/09/16 03:48:12;;;;;;;6.38;5.90;;;13.30;99.90;;;;;;5069238;28;20098;-52
2023/09/16 03:50:38;;;;;;;5.68;5.28;;;13.40;99.90;;;;;;5068455;28;20392;-53
2023/09/16 03:53:04;;;;;;;8.68;7.97;;;13.40;99.90;;;;;;5068033;28;20456;-49
2023/09/16 03:55:29;;;;;;;9.38;8.60;;;13.40;99.90;;;;;;5065549;28;20043;-50
2023/09/16 03:57:55;;;;;;;6.97;6.47;;;13.50;99.90;;;;;;5063340;28;20041;-53
2023/09/16 04:00:21;;;;;;;7.57;5.85;;;13.40;99.90;;;;;;5062285;28;20186;-52
2023/09/16 04:02:46;;;;;;;7.28;6.65;;;13.40;99.90;;;;;;5064198;28;20110;-51
2023/09/16 04:05:13;;;;;;;9.63;8.50;;;13.30;99.90;;;;;;5057505;28;20052;-51
2023/09/16 04:07:39;;;;;;;10.18;9.18;;;13.20;99.90;;;;;;5057872;28;20033;-52
2023/09/16 04:10:06;;;;;;;11.45;10.45;;;13.10;99.90;;;;;;5064739;28;20116;-53
2023/09/16 04:12:32;;;;;;;11.75;10.65;;;13.10;99.90;;;;;;5069015;28;20191;-53
2023/09/16 04:14:58;;;;;;;9.85;9.00;;;13.00;99.90;;;;;;5069643;28;20037;-51
2023/09/16 04:17:24;;;;;;;8.68;7.97;;;13.00;99.90;;;;;;5074760;28;20097;-50
2023/09/16 04:19:49;;;;;;;9.25;8.30;;;13.00;99.90;;;;;;5075423;28;20100;-50
2023/09/16 04:22:15;;;;;;;9.32;8.52;;;12.90;99.90;;;;;;5069460;28;20097;-51
2023/09/16 04:24:40;;;;;;;10.32;9.38;;;12.90;99.90;;;;;;5069102;28;20032;-48
2023/09/16 04:27:06;;;;;;;12.57;10.10;;;12.90;99.90;;;;;;5067552;28;20094;-48
2023/09/16 04:29:32;;;;;;;10.30;9.45;;;13.00;99.90;;;;;;5069025;28;20063;-48
2023/09/16 04:31:57;;;;;;;13.95;11.05;;;13.00;99.90;;;;;;5069045;28;20072;-49
2023/09/16 04:34:23;;;;;;;7.97;7.28;;;13.00;99.90;;;;;;5069448;28;21363;-53
2023/09/16 04:36:54;;;;;;;7.45;6.93;;;13.00;99.90;;;;;;5068152;28;20114;-53
2023/09/16 04:39:23;;;;;;;8.18;7.47;;;12.90;99.90;;;;;;5068998;28;20056;-52
2023/09/16 04:41:53;;;;;;;7.35;6.78;;;12.90;99.90;;;;;;5068611;28;20461;-53
2023/09/16 04:44:19;;;;;;;7.50;6.85;;;12.90;99.90;;;;;;5069791;28;20037;-53
2023/09/16 04:46:46;;;;;;;9.90;9.10;;;12.90;99.90;;;;;;5069131;28;20032;-48
2023/09/16 04:49:12;;;;;;;9.45;8.65;;;12.90;99.90;;;;;;5068057;28;20048;-54
2023/09/16 04:51:38;;;;;;;10.68;9.75;;;12.90;99.90;;;;;;5069538;28;20048;-50
2023/09/16 04:54:04;;;;;;;9.48;8.68;;;13.00;99.90;;;;;;5069100;28;20093;-51
2023/09/16 04:56:30;;;;;;;12.73;10.32;;;13.10;99.90;;;;;;5066713;28;20052;-52
2023/09/16 04:58:56;;;;;;;13.90;12.48;;;13.10;99.90;;;;;;5068859;28;20419;-53
2023/09/16 05:01:21;;;;;;;13.15;11.77;;;13.10;99.90;;;;;;5069096;28;20402;-52
2023/09/16 05:03:47;;;;;;;14.65;13.25;;;13.10;99.90;;;;;;5068686;28;20483;-51
2023/09/16 05:06:13;;;;;;;15.77;14.25;;;13.20;99.90;;;;;;5069297;28;20040;-52
2023/09/16 05:08:38;;;;;;;15.63;14.23;;;13.20;99.90;;;;;;5068507;28;20046;-53
2023/09/16 05:11:04;;;;;;;14.45;12.63;;;13.30;99.90;;;;;;5053146;28;20044;-52
2023/09/16 05:13:30;;;;;;;14.45;12.93;;;13.30;99.90;;;;;;5069104;28;20115;-49
2023/09/16 05:15:55;;;;;;;7.72;7.13;;;13.30;99.90;;;;;;5068719;28;20032;-52
2023/09/16 05:18:21;;;;;;;8.77;7.82;;;13.30;99.90;;;;;;5068836;28;20036;-53
2023/09/16 05:20:50;;;;;;;38.42;8.55;;;13.30;99.90;;;;;;5068318;28;20119;-51
2023/09/16 05:23:16;;;;;;;11.00;9.82;;;13.20;99.90;;;;;;5067360;28;20054;-52
2023/09/16 05:25:47;;;;;;;9.55;8.75;;;13.00;99.90;;;;;;5067023;28;20151;-53
2023/09/16 05:28:13;;;;;;;7.90;7.20;;;12.90;99.90;;;;;;5068817;28;20048;-52
2023/09/16 05:30:38;;;;;;;8.77;8.07;;;12.80;99.90;;;;;;5068020;28;20045;-52
2023/09/16 05:33:04;;;;;;;9.88;9.05;;;12.80;99.90;;;;;;5068649;28;20127;-51
2023/09/16 05:35:30;;;;;;;7.25;6.75;;;12.70;99.90;;;;;;5068708;28;20072;-53
2023/09/16 05:37:57;;;;;;;7.38;6.85;;;12.70;99.90;;;;;;5068048;28;20036;-51
2023/09/16 05:40:23;;;;;;;16.75;6.50;;;12.70;99.90;;;;;;5068541;28;20371;-53
2023/09/16 05:42:50;;;;;;;11.38;7.18;;;12.70;99.90;;;;;;5068551;28;20037;-49
2023/09/16 05:45:16;;;;;;;5.93;5.53;;;12.60;99.90;;;;;;5068634;28;20067;-52
2023/09/16 05:47:44;;;;;;;;;;;12.60;99.90;;;;;;5068880;28;20036;-53
2023/09/16 05:50:11;;;;;;;9.10;8.40;;;12.60;99.90;;;;;;5068332;28;19931;-53
2023/09/16 05:52:37;;;;;;;9.82;9.02;;;12.60;99.90;;;;;;5068011;28;20506;-49
2023/09/16 05:55:03;;;;;;;13.40;12.00;;;12.70;99.90;;;;;;5069065;28;20102;-52
2023/09/16 05:57:28;;;;;;;12.55;11.40;;;12.70;99.90;;;;;;5069061;28;20087;-50
2023/09/16 05:59:54;;;;;;;11.57;10.45;;;12.70;99.90;;;;;;5068352;28;20033;-53
2023/09/16 06:02:20;;;;;;;13.65;11.85;;;12.70;99.90;;;;;;5066028;28;20079;-49
2023/09/16 06:04:45;;;;;;;12.35;11.18;;;12.80;99.90;;;;;;5057419;28;20555;-51
2023/09/16 06:07:11;;;;;;;14.13;12.77;;;12.80;99.90;;;;;;5062506;28;20128;-54
2023/09/16 06:09:36;;;;;;;13.73;12.43;;;12.80;99.90;;;;;;5063379;28;20044;-52
2023/09/16 06:12:02;;;;;;;15.38;13.98;;;12.90;99.90;;;;;;5057798;28;20491;-49
2023/09/16 06:14:28;;;;;;;15.32;13.10;;;13.00;99.90;;;;;;5057932;28;20025;-52
2023/09/16 06:16:53;;;;;;;14.95;13.55;;;13.00;99.90;;;;;;5061431;28;20538;-51
2023/09/16 06:19:19;;;;;;;14.68;13.15;;;13.10;99.90;;;;;;5059610;28;20036;-52
2023/09/16 06:21:44;;;;;;;15.65;14.25;;;13.10;99.90;;;;;;5058961;28;20471;-53
2023/09/16 06:24:10;;;;;;;14.50;13.13;;;13.10;99.90;;;;;;5064066;28;20060;-53
2023/09/16 06:26:35;;;;;;;14.15;12.82;;;13.20;99.90;;;;;;5062692;28;20115;-49
2023/09/16 06:29:01;;;;;;;16.38;14.73;;;13.20;99.90;;;;;;5062615;28;20041;-50
2023/09/16 06:31:27;;;;;;;16.60;15.07;;;13.30;99.90;;;;;;5067930;28;20070;-52
2023/09/16 06:33:54;;;;;;;17.23;15.65;;;13.40;99.90;;;;;;5070941;28;20041;-52
2023/09/16 06:36:20;;;;;;;18.02;16.38;;;13.50;99.90;;;;;;5062378;28;20044;-51
2023/09/16 06:38:45;;;;;;;20.63;16.20;;;13.60;99.90;;;;;;5066583;28;20032;-53
2023/09/16 06:41:11;;;;;;;18.33;16.50;;;13.70;99.90;;;;;;5071125;28;20415;-52
2023/09/16 06:43:36;;;;;;;19.75;17.55;;;13.90;99.90;;;;;;5071455;28;20079;-52
2023/09/16 06:46:02;;;;;;;20.02;18.13;;;14.00;99.90;;;;;;5070396;28;20079;-49
2023/09/16 06:48:27;;;;;;;19.90;17.77;;;14.10;99.90;;;;;;5068889;28;20094;-51
2023/09/16 06:50:53;;;;;;;18.52;16.63;;;14.20;99.90;;;;;;5064065;28;20047;-49
2023/09/16 06:53:19;;;;;;;19.02;17.13;;;14.30;99.90;;;;;;5071097;28;20434;-49
2023/09/16 06:55:47;;;;;;;18.70;16.80;;;14.30;99.90;;;;;;5073720;28;20043;-50
2023/09/16 06:58:13;;;;;;;18.70;16.80;;;14.30;99.90;;;;;;5076308;28;20068;-51
2023/09/16 07:00:39;;;;;;;20.77;18.67;;;14.40;99.90;;;;;;5072659;28;20044;-48
2023/09/16 07:03:05;;;;;;;19.20;17.23;;;14.40;99.90;;;;;;5069194;28;20029;-49
2023/09/16 07:05:31;;;;;;;18.70;16.50;;;14.40;99.90;;;;;;5063723;28;20105;-50
2023/09/16 07:07:58;;;;;;;18.05;16.13;;;14.50;99.90;;;;;;5061892;28;20067;-47
2023/09/16 07:10:24;;;;;;;18.63;16.83;;;14.60;99.90;;;;;;5069625;28;20055;-49
2023/09/16 07:12:50;;;;;;;19.38;17.38;;;14.70;99.90;;;;;;5068009;28;20122;-48
2023/09/16 07:15:17;;;;;;;20.88;16.35;;;14.70;99.90;;;;;;5067576;28;20082;-48
2023/09/16 07:17:43;;;;;;;18.63;16.92;;;14.80;99.90;;;;;;5069087;28;20043;-48
2023/09/16 07:20:09;;;;;;;19.08;17.05;;;14.90;99.90;;;;;;5065756;28;20403;-47
2023/09/16 07:22:34;;;;;;;;;;;14.90;99.90;;;;;;5055294;28;20036;-48
2023/09/16 07:25:00;;;;;;;20.83;17.17;;;15.00;99.90;;;;;;5054556;28;20422;-53
2023/09/16 07:27:26;;;;;;;20.95;17.95;;;15.10;99.90;;;;;;5064465;28;20520;-52
2023/09/16 07:29:51;;;;;;;19.60;17.60;;;15.10;99.90;;;;;;5066220;28;20041;-53
2023/09/16 07:32:17;;;;;;;21.52;18.52;;;15.20;99.90;;;;;;5065999;28;20122;-51
2023/09/16 07:34:42;;;;;;;18.63;16.75;;;15.30;99.90;;;;;;5067112;28;20032;-49
2023/09/16 07:37:08;;;;;;;19.73;17.73;;;15.30;99.90;;;;;;5062456;28;20036;-52
2023/09/16 07:39:34;;;;;;;19.45;17.25;;;15.30;99.90;;;;;;5064798;28;20048;-50
2023/09/16 07:41:59;;;;;;;18.60;16.63;;;15.40;99.90;;;;;;5063783;28;20058;-53
2023/09/16 07:44:26;;;;;;;19.45;17.55;;;15.50;99.90;;;;;;5066795;28;20033;-51
2023/09/16 07:46:52;;;;;;;18.60;16.30;;;15.50;99.90;;;;;;5066749;28;20048;-50
2023/09/16 07:49:17;;;;;;;20.25;16.98;;;15.60;99.90;;;;;;5064409;28;20090;-52
2023/09/16 07:51:45;;;;;;;20.88;18.23;;;15.60;99.90;;;;;;5067997;28;20036;-49
2023/09/16 07:54:14;;;;;;;19.63;17.50;;;15.70;99.90;;;;;;5067830;28;20043;-48
2023/09/16 07:56:40;;;;;;;18.05;16.00;;;15.70;99.90;;;;;;5065677;28;20064;-53
2023/09/16 07:59:06;;;;;;;18.98;17.08;;;15.80;99.90;;;;;;5056264;28;20041;-52
2023/09/16 08:01:31;;;;;;;20.27;17.90;;;15.90;99.90;;;;;;5056799;28;20048;-51
2023/09/16 08:03:57;;;;;;;19.33;17.50;;;16.00;99.90;;;;;;5044983;28;20045;-49
2023/09/16 08:06:23;;;;;;;21.48;17.83;;;16.10;99.90;;;;;;5050046;28;20334;-53
2023/09/16 08:08:49;;;;;;;18.50;16.17;;;16.20;99.90;;;;;;5057376;28;20036;-51
2023/09/16 08:11:15;;;;;;;18.15;15.20;;;16.30;99.90;;;;;;5058435;28;20101;-53
2023/09/16 08:13:41;;;;;;;17.65;15.82;;;16.40;99.90;;;;;;5068851;28;20041;-52
2023/09/16 08:16:07;;;;;;;18.13;15.68;;;16.50;99.90;;;;;;5062089;28;20041;-53
2023/09/16 08:18:32;;;;;;;15.65;13.60;;;16.70;99.90;;;;;;5064524;28;20445;-51
2023/09/16 08:21:00;;;;;;;14.75;13.30;;;16.80;99.90;;;;;;5066174;28;20117;-52
2023/09/16 08:23:26;;;;;;;16.00;14.35;;;17.00;99.90;;;;;;5069289;28;20173;-53
2023/09/16 08:25:51;;;;;;;15.00;13.43;;;17.10;99.90;;;;;;5063143;28;20306;-49
2023/09/16 08:28:17;;;;;;;16.20;13.82;;;17.20;99.90;;;;;;5054413;28;20051;-52
2023/09/16 08:30:43;;;;;;;14.65;12.98;;;17.30;99.90;;;;;;5062346;28;20040;-51
2023/09/16 08:33:09;;;;;;;15.40;13.40;;;17.40;99.90;;;;;;5068569;28;20051;-50
2023/09/16 08:35:35;;;;;;;15.38;13.82;;;17.60;99.90;;;;;;5066947;28;20421;-54
2023/09/16 08:38:02;;;;;;;14.73;13.32;;;17.70;99.90;;;;;;5069168;28;20384;-48
2023/09/16 08:40:31;;;;;;;15.05;13.55;;;17.80;99.90;;;;;;5065347;28;20560;-52
2023/09/16 08:43:14;;;;;;;18.58;13.07;;;18.00;99.90;;;;;;5068969;28;20536;-50
2023/09/16 08:45:49;;;;;;;14.57;13.13;;;18.20;99.90;;;;;;5064752;28;20086;-53
2023/09/16 08:48:21;;;;;;;13.35;11.88;;;18.30;99.90;;;;;;5051348;28;20071;-50
2023/09/16 08:50:50;;;;;;;12.35;11.02;;;18.40;99.90;;;;;;5062980;28;20044;-53
2023/09/16 08:53:18;;;;;;;14.45;11.65;;;18.50;99.90;;;;;;5062194;28;20051;-53
2023/09/16 08:55:44;;;;;;;12.00;10.70;;;18.60;99.90;;;;;;5059867;28;20038;-50
2023/09/16 08:58:10;;;;;;;13.15;11.38;;;18.70;99.90;;;;;;5058000;28;20076;-52
2023/09/16 09:00:37;;;;;;;14.65;10.85;;;18.90;99.90;;;;;;5056142;28;20045;-51
2023/09/16 09:03:03;;;;;;;12.20;11.10;;;18.90;99.90;;;;;;5061827;28;20045;-53
2023/09/16 09:05:29;;;;;;;;;;;19.00;99.90;;;;;;5068061;28;20067;-52
2023/09/16 09:07:55;;;;;;;12.27;11.07;;;19.00;99.90;;;;;;5058162;28;20336;-49
2023/09/16 09:10:21;;;;;;;13.60;12.18;;;19.00;99.90;;;;;;5063619;28;20041;-49
2023/09/16 09:12:46;;;;;;;;;;;19.10;99.90;;;;;;5063214;28;20076;-52
2023/09/16 09:15:14;;;;;;;15.23;11.00;;;19.10;99.90;;;;;;5059831;28;20011;-50
2023/09/16 09:17:55;;;;;;;10.90;9.85;;;19.20;99.90;;;;;;5059597;28;20399;-53
2023/09/16 09:20:24;;;;;;;12.48;10.77;;;19.20;99.90;;;;;;5061214;28;20049;-48
2023/09/16 09:22:51;;;;;;;13.48;10.27;;;19.40;99.90;;;;;;5059947;28;20029;-52
2023/09/16 09:25:27;;;;;;;11.43;10.32;;;19.40;99.90;;;;;;5051219;28;20044;-50
2023/09/16 09:27:54;;;;;;;;;;;19.50;99.90;;;;;;5055601;28;20033;-52
2023/09/16 09:30:24;;;;;;;10.68;9.63;;;19.60;99.90;;;;;;5053392;28;20276;-50
2023/09/16 09:32:50;;;;;;;11.23;10.07;;;19.70;99.90;;;;;;5048426;28;20052;-50
2023/09/16 09:35:16;;;;;;;11.73;10.02;;;19.70;99.90;;;;;;5058663;28;20064;-48
2023/09/16 09:37:42;;;;;;;12.45;11.27;;;19.80;99.90;;;;;;5061108;28;20396;-51
2023/09/16 09:40:10;;;;;;;11.25;10.15;;;20.00;99.90;;;;;;5063784;28;20025;-52
2023/09/16 09:42:47;;;;;;;15.73;12.73;;;20.10;99.90;;;;;;5055191;28;20080;-50
2023/09/16 09:45:14;;;;;;;11.57;10.57;;;20.30;99.90;;;;;;5067864;28;20119;-51
2023/09/16 09:47:40;;;;;;;9.40;8.52;;;20.40;99.90;;;;;;5062294;28;20041;-48
2023/09/16 09:50:07;;;;;;;;;;;20.50;99.90;;;;;;5068055;28;20051;-48
2023/09/16 09:52:34;;;;;;;15.18;9.98;;;20.60;99.90;;;;;;5065961;28;20401;-48
2023/09/16 09:55:01;;;;;;;10.07;8.05;;;20.70;99.90;;;;;;5070331;28;20082;-49
2023/09/16 09:57:27;;;;;;;9.00;8.10;;;20.90;99.90;;;;;;5060649;28;20041;-48
2023/09/16 09:59:54;;;;;;;9.98;8.73;;;21.00;99.90;;;;;;5060796;28;20051;-49
2023/09/16 10:02:27;;;;;;;9.77;8.98;;;21.10;99.90;;;;;;5068141;28;20045;-49
2023/09/16 10:05:02;;;;;;;12.25;9.70;;;21.20;99.90;;;;;;5068900;28;20144;-48
2023/09/16 10:07:29;;;;;;;13.87;9.33;;;21.40;99.90;;;;;;5070747;28;20048;-49
2023/09/16 10:09:55;;;;;;;11.60;8.68;;;21.50;99.90;;;;;;5061658;28;20487;-50
2023/09/16 10:12:22;;;;;;;9.25;8.15;;;21.60;99.90;;;;;;5066488;28;20044;-49
2023/09/16 10:14:48;;;;;;;9.52;8.32;;;21.70;99.90;;;;;;5070096;28;20056;-51
2023/09/16 10:17:15;;;;;;;9.52;7.72;;;21.80;99.90;;;;;;5067432;28;20403;-49
2023/09/16 10:19:42;;;;;;;9.82;7.28;;;22.00;99.90;;;;;;5068852;28;20090;-54
2023/09/16 10:22:08;;;;;;;8.70;7.88;;;22.10;99.90;;;;;;5070819;28;20059;-52
2023/09/16 10:24:34;;;;;;;;;;;22.20;99.90;;;;;;5069430;28;20398;-49
2023/09/16 10:27:08;;;;;;;7.68;6.90;;;22.30;99.90;;;;;;5070334;28;19970;-53
2023/09/16 10:29:35;;;;;;;8.13;6.63;;;22.50;99.90;;;;;;5069851;28;20045;-52
2023/09/16 10:32:01;;;;;;;7.38;6.55;;;22.60;99.90;;;;;;5071260;28;20495;-49
2023/09/16 10:34:27;;;;;;;;;;;22.70;99.90;;;;;;5069134;28;20042;-50
2023/09/16 10:36:53;;;;;;;7.07;6.38;;;22.70;99.90;;;;;;5061522;28;20352;-51
2023/09/16 10:39:20;;;;;;;7.43;6.75;;;22.90;99.90;;;;;;5060203;28;20036;-51
2023/09/16 10:41:47;;;;;;;8.35;7.35;;;22.90;99.90;;;;;;5058619;28;20075;-52
2023/09/16 10:44:15;;;;;;;6.88;6.35;;;23.00;99.90;;;;;;5057667;28;20045;-53
2023/09/16 10:46:42;;;;;;;7.15;5.80;;;23.00;99.90;;;;;;5056629;28;20453;-54
2023/09/16 10:49:08;;;;;;;6.70;6.10;;;23.20;99.90;;;;;;5059980;28;20037;-52
2023/09/16 10:51:45;;;;;;;8.07;6.68;;;23.30;99.90;;;;;;5060842;28;20036;-51
2023/09/16 10:54:21;;;;;;;6.75;6.10;;;23.40;99.90;;;;;;5048734;28;20041;-54
2023/09/16 10:56:48;;;;;;;7.93;6.22;;;23.50;99.90;;;;;;5052139;28;20040;-52
2023/09/16 10:59:17;;;;;;;10.20;6.57;;;23.60;99.90;;;;;;5061828;28;20040;-51
2023/09/16 11:01:57;;;;;;;16.30;6.38;;;23.70;99.90;;;;;;5053785;28;20040;-50
2023/09/16 11:04:24;;;;;;;11.85;6.82;;;23.70;99.90;;;;;;5051021;28;20174;-51
2023/09/16 11:06:50;;;;;;;6.95;4.82;;;23.70;99.90;;;;;;5058322;28;20037;-53
2023/09/16 11:09:24;;;;;;;6.25;5.65;;;23.80;99.90;;;;;;5046265;28;20046;-54
2023/09/16 11:11:51;;;;;;;78.97;10.25;;;23.80;99.90;;;;;;5054877;28;20048;-54
2023/09/16 11:14:18;;;;;;;17.60;5.35;;;23.90;99.90;;;;;;5066077;28;20039;-51
2023/09/16 11:16:52;;;;;;;6.47;4.70;;;24.00;99.90;;;;;;5065684;28;20984;-52
2023/09/16 11:19:24;;;;;;;6.82;5.00;;;24.20;99.90;;;;;;5055186;28;20033;-51
2023/09/16 11:21:51;;;;;;;5.47;4.95;;;24.20;99.90;;;;;;5060665;28;20033;-49
2023/09/16 11:24:16;;;;;;;7.50;5.15;;;24.30;99.90;;;;;;5051133;28;20044;-53
2023/09/16 11:26:46;;;;;;;5.25;4.75;;;24.40;99.90;;;;;;5061526;28;20099;-53
2023/09/16 11:29:20;;;;;;;4.28;3.97;;;24.40;99.90;;;;;;5063463;28;20039;-54
2023/09/16 11:31:46;;;;;;;5.07;4.20;;;24.40;99.90;;;;;;5064179;28;20029;-52
2023/09/16 11:34:12;;;;;;;3.20;3.00;;;24.50;99.90;;;;;;5053071;28;20038;-54
2023/09/16 11:36:45;;;;;;;4.55;3.63;;;24.60;99.90;;;;;;5059882;28;20138;-52
2023/09/16 11:39:10;;;;;;;3.97;3.15;;;24.70;99.90;;;;;;5057950;28;20120;-54
2023/09/16 11:41:36;;;;;;;17.38;7.25;;;24.80;99.90;;;;;;5053771;28;20120;-53
2023/09/16 11:44:04;;;;;;;3.92;3.60;;;24.90;99.90;;;;;;5050670;28;20087;-53
2023/09/16 11:46:31;;;;;;;5.32;4.32;;;24.90;99.90;;;;;;5055605;28;20128;-53
2023/09/16 11:49:05;;;;;;;4.30;3.30;;;24.90;99.90;;;;;;5058314;28;20041;-51
2023/09/16 11:51:32;;;;;;;5.97;3.03;;;25.00;99.90;;;;;;5058132;28;20560;-54
2023/09/16 11:53:57;;;;;;;5.03;2.63;;;25.00;99.90;;;;;;5055370;28;20127;-53
2023/09/16 11:56:28;;;;;;;4.97;3.33;;;25.20;99.90;;;;;;5058594;28;20456;-51
2023/09/16 11:58:55;;;;;;;8.35;2.92;;;25.20;99.90;;;;;;5064389;28;20043;-51
2023/09/16 12:01:25;;;;;;;3.03;2.83;;;25.30;99.90;;;;;;5063356;28;20065;-52
2023/09/16 12:03:51;;;;;;;3.13;2.83;;;25.40;99.90;;;;;;5063595;28;20041;-54
2023/09/16 12:06:20;;;;;;;7.47;3.20;;;25.50;99.90;;;;;;5063438;28;20675;-54
2023/09/16 12:08:46;;;;;;;2.38;2.25;;;25.60;99.90;;;;;;5064300;28;20055;-52
2023/09/16 12:11:12;;;;;;;6.43;2.92;;;25.60;99.90;;;;;;5066913;28;20049;-52
2023/09/16 12:13:41;;;;;;;2.60;2.33;;;25.70;99.90;;;;;;5067619;28;20048;-51
2023/09/16 12:16:07;;;;;;;2.25;2.05;;;25.80;99.90;;;;;;5064910;28;20040;-53
2023/09/16 12:18:32;;;;;;;3.28;2.80;;;25.80;99.60;;;;;;5067119;28;20028;-52
2023/09/16 12:20:58;;;;;;;4.35;2.90;;;25.70;99.10;;;;;;5063618;28;20044;-52
2023/09/16 12:23:28;;;;;;;5.47;2.40;;;25.70;99.50;;;;;;5059497;28;20043;-51
2023/09/16 12:25:54;;;;;;;2.75;2.10;;;25.80;99.30;;;;;;5048839;28;20550;-49
2023/09/16 12:28:23;;;;;;;2.58;2.35;;;25.80;99.40;;;;;;5060983;28;20298;-49
2023/09/16 12:30:51;;;;;;;5.07;2.35;;;25.80;98.60;;;;;;5061502;28;20040;-50
2023/09/16 12:33:20;;;;;;;3.80;2.28;;;25.80;98.90;;;;;;5064018;28;20131;-50
2023/09/16 12:35:47;;;;;;;2.25;1.95;;;25.90;98.80;;;;;;5067137;28;20131;-49
2023/09/16 12:38:15;;;;;;;4.80;2.20;;;26.00;98.20;;;;;;5063232;28;20044;-51